Time;durP1;ratioP1;P1;durP2;ratioP2;P2;SDS_P1;SDS_P2;PMS_P1;PMS_P2;Temp;Humidity;BMP_temperature;BMP_pressure;BME280_temperature;BME280_humidity;BME280_pressure;Samples;Min_cycle;Max_cycle;Signal;HPM_P1;HPM_P2
2022/05/12 00:00:06;;;;;;;;;;;24.00;38.10;;;;;;8303392;28;19929;-46
2022/05/12 00:04:07;;;;;;;;;;;24.00;38.20;;;;;;8303548;28;19967;-49
2022/05/12 00:08:07;;;;;;;;;;;24.00;38.10;;;;;;8303596;28;19922;-48
2022/05/12 00:12:08;;;;;;;;;;;24.00;38.10;;;;;;8303034;28;19930;-50
2022/05/12 00:16:08;;;;;;;;;;;24.00;38.10;;;;;;8303205;28;20004;-46
2022/05/12 00:20:09;;;;;;;;;;;24.00;38.10;;;;;;8303177;28;19918;-46
2022/05/12 00:24:10;;;;;;;;;;;23.90;38.10;;;;;;8302511;28;19918;-47
2022/05/12 00:28:11;;;;;;;;;;;23.90;38.10;;;;;;8302756;28;19969;-46
2022/05/12 00:32:11;;;;;;;;;;;24.00;38.20;;;;;;8303016;28;20000;-48
2022/05/12 00:36:12;;;;;;;;;;;23.90;38.10;;;;;;8302202;28;19924;-47
2022/05/12 00:40:13;;;;;;;;;;;23.90;38.10;;;;;;8302447;28;19918;-47
2022/05/12 00:44:16;;;;;;;;;;;23.90;38.10;;;;;;8302406;28;20275;-49
2022/05/12 00:48:16;;;;;;;;;;;23.90;38.10;;;;;;8301727;28;20378;-49
2022/05/12 00:52:20;;;;;;;;;;;23.90;38.10;;;;;;8300967;28;19929;-48
2022/05/12 00:56:22;;;;;;;;;;;23.90;38.10;;;;;;8301897;28;20271;-47
2022/05/12 01:00:23;;;;;;;;;;;23.90;38.20;;;;;;8301430;28;19924;-52
2022/05/12 01:04:24;;;;;;;;;;;23.90;38.20;;;;;;8301071;28;19929;-51
2022/05/12 01:08:24;;;;;;;;;;;23.90;38.10;;;;;;8300947;28;19913;-51
2022/05/12 01:12:25;;;;;;;;;;;23.90;38.20;;;;;;8301254;28;20489;-51
2022/05/12 01:16:37;;;;;;;;;;;23.90;38.20;;;;;;8301575;28;19917;-51
2022/05/12 01:20:38;;;;;;;;;;;23.80;38.20;;;;;;8301448;28;19918;-48
2022/05/12 01:24:41;;;;;;;;;;;23.80;38.10;;;;;;8300615;28;19918;-48
2022/05/12 01:28:41;;;;;;;;;;;23.80;38.20;;;;;;8301030;28;20016;-52
2022/05/12 01:32:46;;;;;;;;;;;23.80;38.20;;;;;;8300888;28;19925;-47
2022/05/12 01:36:47;;;;;;;;;;;23.80;38.20;;;;;;8300622;28;20368;-50
2022/05/12 01:40:47;;;;;;;;;;;23.80;38.20;;;;;;8300791;28;19918;-48
2022/05/12 01:44:47;;;;;;;;;;;23.80;38.70;;;;;;8299982;28;19918;-47
2022/05/12 01:48:48;;;;;;;;;;;23.80;38.20;;;;;;8300278;28;20381;-50
2022/05/12 01:52:49;;;;;;;;;;;23.80;38.20;;;;;;8300339;28;20405;-47
2022/05/12 01:56:49;;;;;;;;;;;23.70;38.20;;;;;;8299814;28;20293;-46
2022/05/12 02:00:50;;;;;;;;;;;23.70;38.20;;;;;;8300062;28;19927;-47
2022/05/12 02:04:50;;;;;;;;;;;23.70;38.20;;;;;;8299749;28;19956;-47
2022/05/12 02:08:50;;;;;;;;;;;23.70;38.30;;;;;;8299263;28;19917;-47
2022/05/12 02:12:51;;;;;;;;;;;23.70;38.30;;;;;;8299825;28;20271;-47
2022/05/12 02:16:51;;;;;;;;;;;23.70;38.30;;;;;;8299597;28;19921;-48
2022/05/12 02:20:52;;;;;;;;;;;23.70;38.30;;;;;;8299099;28;19918;-51
2022/05/12 02:24:53;;;;;;;;;;;23.70;38.30;;;;;;8299298;28;20437;-49
2022/05/12 02:28:53;;;;;;;;;;;23.70;38.30;;;;;;8299254;28;19924;-49
2022/05/12 02:32:54;;;;;;;;;;;23.60;38.30;;;;;;8298879;28;19918;-48
2022/05/12 02:37:00;;;;;;;;;;;23.60;38.30;;;;;;8298960;28;20430;-50
2022/05/12 02:41:01;;;;;;;;;;;23.60;38.80;;;;;;8299014;28;19922;-46
2022/05/12 02:45:01;;;;;;;;;;;23.60;38.80;;;;;;8298274;28;19917;-52
2022/05/12 02:49:02;;;;;;;;;;;23.60;38.30;;;;;;8298712;28;19917;-51
2022/05/12 02:53:02;;;;;;;;;;;23.60;38.30;;;;;;8298720;28;19913;-48
2022/05/12 02:57:03;;;;;;;;;;;23.60;38.30;;;;;;8297857;28;19917;-47
2022/05/12 03:01:05;;;;;;;;;;;23.60;38.30;;;;;;8298346;28;19918;-49
2022/05/12 03:05:06;;;;;;;;;;;23.60;38.30;;;;;;8298192;28;20295;-53
2022/05/12 03:09:06;;;;;;;;;;;23.50;38.60;;;;;;8297495;28;19917;-49
2022/05/12 03:13:07;;;;;;;;;;;23.60;38.40;;;;;;8298137;28;19960;-48
2022/05/12 03:17:07;;;;;;;;;;;23.50;38.30;;;;;;8297150;28;19921;-47
2022/05/12 03:21:09;;;;;;;;;;;23.50;38.30;;;;;;8297361;28;20433;-49
2022/05/12 03:25:10;;;;;;;;;;;23.50;38.30;;;;;;8297731;28;20016;-47
2022/05/12 03:29:11;;;;;;;;;;;23.50;38.40;;;;;;8297509;28;19936;-49
2022/05/12 03:33:11;;;;;;;;;;;23.50;38.40;;;;;;8297216;28;19913;-47
2022/05/12 03:37:12;;;;;;;;;;;23.40;38.30;;;;;;8297506;28;19918;-47
2022/05/12 03:41:12;;;;;;;;;;;23.50;38.40;;;;;;8297465;28;19925;-47
2022/05/12 03:45:13;;;;;;;;;;;23.40;38.30;;;;;;8297035;28;20024;-48
2022/05/12 03:49:14;;;;;;;;;;;23.50;38.40;;;;;;8297337;28;19925;-48
2022/05/12 03:53:14;;;;;;;;;;;23.40;38.40;;;;;;8297469;28;19913;-49
2022/05/12 03:57:15;;;;;;;;;;;23.40;38.40;;;;;;8296773;28;19940;-50
2022/05/12 04:01:15;;;;;;;;;;;23.40;38.40;;;;;;8297087;28;20327;-49
2022/05/12 04:05:18;;;;;;;;;;;23.40;38.40;;;;;;8297413;28;20346;-47
2022/05/12 04:09:18;;;;;;;;;;;23.40;38.40;;;;;;8295686;28;20406;-46
2022/05/12 04:13:19;;;;;;;;;;;23.40;38.40;;;;;;8297221;28;20017;-46
2022/05/12 04:17:19;;;;;;;;;;;23.40;38.40;;;;;;8296894;28;19918;-46
2022/05/12 04:21:20;;;;;;;;;;;23.40;38.40;;;;;;8296851;28;19945;-46
2022/05/12 04:25:20;;;;;;;;;;;23.40;38.40;;;;;;8297670;28;20011;-46
2022/05/12 04:29:21;;;;;;;;;;;23.40;38.50;;;;;;8302767;28;19922;-46
2022/05/12 04:37:44;;;;;;;;;;;23.40;38.40;;;;;;8304745;28;20332;-47
2022/05/12 04:41:45;;;;;;;;;;;23.30;38.40;;;;;;8302037;28;20333;-47
2022/05/12 04:45:45;;;;;;;;;;;23.30;38.40;;;;;;8302384;28;20001;-50
2022/05/12 04:49:46;;;;;;;;;;;23.30;38.40;;;;;;8302227;28;19926;-48
2022/05/12 04:53:46;;;;;;;;;;;23.30;38.40;;;;;;8302008;28;19920;-47
2022/05/12 04:57:49;;;;;;;;;;;23.30;38.40;;;;;;8302257;28;20291;-49
2022/05/12 05:01:50;;;;;;;;;;;23.30;38.50;;;;;;8301940;28;20302;-48
2022/05/12 05:05:50;;;;;;;;;;;23.30;38.40;;;;;;8301839;28;19921;-46
2022/05/12 05:09:51;;;;;;;;;;;23.30;38.50;;;;;;8301777;28;20378;-47
2022/05/12 05:13:51;;;;;;;;;;;23.30;38.50;;;;;;8301481;28;19921;-47
2022/05/12 05:17:52;;;;;;;;;;;23.30;38.50;;;;;;8300831;28;19917;-47
2022/05/12 05:21:53;;;;;;;;;;;23.30;38.50;;;;;;8301024;28;20405;-49
2022/05/12 05:25:54;;;;;;;;;;;23.30;38.50;;;;;;8301013;28;19924;-48
2022/05/12 05:29:55;;;;;;;;;;;23.20;38.40;;;;;;8300492;28;20294;-51
2022/05/12 05:33:55;;;;;;;;;;;23.30;38.50;;;;;;8300956;28;19914;-49
2022/05/12 05:37:56;;;;;;;;;;;23.30;38.50;;;;;;8299825;28;19918;-50
2022/05/12 05:41:58;;;;;;;;;;;23.30;38.50;;;;;;8300081;28;19925;-49
2022/05/12 05:45:59;;;;;;;;;;;23.20;38.50;;;;;;8300395;28;19918;-46
2022/05/12 05:49:59;;;;;;;;;;;23.30;38.50;;;;;;8300157;28;19931;-46
2022/05/12 05:54:00;;;;;;;;;;;23.20;38.50;;;;;;8299927;28;20021;-47
2022/05/12 05:58:01;;;;;;;;;;;23.20;38.50;;;;;;8299966;28;19928;-46
2022/05/12 06:02:03;;;;;;;;;;;23.30;38.60;;;;;;8299996;28;19975;-46
2022/05/12 06:06:03;;;;;;;;;;;23.30;38.60;;;;;;8298885;28;19925;-48
2022/05/12 06:10:06;;;;;;;;;;;23.20;38.60;;;;;;8299511;28;19926;-51
2022/05/12 06:14:06;;;;;;;;;;;23.30;38.60;;;;;;8299765;28;19918;-51
2022/05/12 06:18:07;;;;;;;;;;;23.20;38.50;;;;;;8298886;28;19921;-48
2022/05/12 06:22:08;;;;;;;;;;;23.20;38.50;;;;;;8299519;28;19928;-47
2022/05/12 06:26:14;;;;;;;;;;;23.20;38.50;;;;;;8299335;28;19918;-47
2022/05/12 06:30:15;;;;;;;;;;;23.20;38.60;;;;;;8298622;28;20326;-49
2022/05/12 06:34:15;;;;;;;;;;;23.20;38.60;;;;;;8299066;28;19920;-47
2022/05/12 06:38:16;;;;;;;;;;;23.20;39.10;;;;;;8298867;28;20382;-47
2022/05/12 06:42:16;;;;;;;;;;;23.30;38.50;;;;;;8298174;28;20027;-48
2022/05/12 06:46:18;;;;;;;;;;;23.30;38.50;;;;;;8298732;28;20363;-51
2022/05/12 06:50:20;;;;;;;;;;;23.30;38.40;;;;;;8298324;28;20027;-48
2022/05/12 06:54:22;;;;;;;;;;;23.30;38.40;;;;;;8298063;28;19917;-46
2022/05/12 06:58:23;;;;;;;;;;;23.40;38.40;;;;;;8298430;28;19917;-51
2022/05/12 07:02:24;;;;;;;;;;;23.30;38.30;;;;;;8298449;28;19928;-48
2022/05/12 07:06:24;;;;;;;;;;;23.40;38.30;;;;;;8297837;28;19921;-49
2022/05/12 07:10:25;;;;;;;;;;;23.40;38.20;;;;;;8297451;28;20371;-51
2022/05/12 07:14:26;;;;;;;;;;;23.40;38.20;;;;;;8298274;28;20035;-49
2022/05/12 07:18:26;;;;;;;;;;;23.40;38.20;;;;;;8297442;28;20363;-51
2022/05/12 07:26:47;;;;;;;;;;;23.40;38.20;;;;;;8300008;28;19925;-47
2022/05/12 07:31:03;;;;;;;;;;;23.40;38.20;;;;;;8297607;28;19925;-48
2022/05/12 07:35:05;;;;;;;;;;;23.40;38.20;;;;;;8298249;28;19913;-52
2022/05/12 07:39:05;;;;;;;;;;;23.40;38.20;;;;;;8297280;28;19971;-48
2022/05/12 07:43:06;;;;;;;;;;;23.40;38.20;;;;;;8297843;28;19996;-48
2022/05/12 07:47:13;;;;;;;;;;;23.50;38.30;;;;;;8297562;28;19917;-48
2022/05/12 07:51:13;;;;;;;;;;;23.50;38.20;;;;;;8297020;28;19925;-49
2022/05/12 07:55:14;;;;;;;;;;;23.50;38.20;;;;;;8297715;28;19914;-49
2022/05/12 07:59:14;;;;;;;;;;;23.50;38.20;;;;;;8297553;28;19948;-46
2022/05/12 08:03:14;;;;;;;;;;;23.50;38.20;;;;;;8302738;28;19925;-48
2022/05/12 08:07:15;;;;;;;;;;;23.50;38.20;;;;;;8303680;28;20437;-46
2022/05/12 08:11:16;;;;;;;;;;;23.50;38.20;;;;;;8303692;28;20351;-47
2022/05/12 08:15:17;;;;;;;;;;;23.50;38.20;;;;;;8303444;28;19917;-48
2022/05/12 08:19:17;;;;;;;;;;;23.50;38.20;;;;;;8303351;28;19940;-48
2022/05/12 08:23:17;;;;;;;;;;;23.60;38.20;;;;;;8303284;28;19917;-50
2022/05/12 08:27:18;;;;;;;;;;;23.50;38.20;;;;;;8302716;28;19924;-47
2022/05/12 08:31:22;;;;;;;;;;;23.60;38.20;;;;;;8302844;28;19925;-46
2022/05/12 08:35:23;;;;;;;;;;;23.60;38.20;;;;;;8303095;28;20290;-46
2022/05/12 08:39:23;;;;;;;;;;;23.60;38.20;;;;;;8302309;28;19924;-48
2022/05/12 08:43:43;;;;;;;;;;;23.60;38.20;;;;;;8302594;28;19918;-48
2022/05/12 08:47:45;;;;;;;;;;;23.60;38.20;;;;;;8302270;28;20426;-49
2022/05/12 08:51:51;;;;;;;;;;;23.60;38.20;;;;;;8300864;28;19932;-47
2022/05/12 08:55:59;;;;;;;;;;;23.60;38.20;;;;;;8302261;28;19956;-47
2022/05/12 09:00:06;;;;;;;;;;;23.60;38.20;;;;;;8301965;28;20278;-47
2022/05/12 09:04:10;;;;;;;;;;;23.70;38.20;;;;;;8302346;28;19921;-53
2022/05/12 09:08:15;;;;;;;;;;;23.70;38.20;;;;;;8301719;28;19913;-48
2022/05/12 09:12:26;;;;;;;;;;;23.70;38.20;;;;;;8300073;28;19925;-51
2022/05/12 09:16:28;;;;;;;;;;;23.70;38.20;;;;;;8301798;28;19914;-48
2022/05/12 09:20:30;;;;;;;;;;;23.70;38.10;;;;;;8301809;28;19917;-48
2022/05/12 09:24:31;;;;;;;;;;;23.70;38.20;;;;;;8301019;28;20202;-49
2022/05/12 09:28:36;;;;;;;;;;;23.70;38.10;;;;;;8301184;28;19917;-46
2022/05/12 09:32:38;;;;;;;;;;;23.70;38.10;;;;;;8301027;28;20382;-50
2022/05/12 09:36:39;;;;;;;;;;;23.80;38.10;;;;;;8300470;28;19924;-48
2022/05/12 09:40:39;;;;;;;;;;;23.80;38.10;;;;;;8301347;28;19913;-48
2022/05/12 09:44:50;;;;;;;;;;;23.80;38.20;;;;;;8300666;28;19960;-46
2022/05/12 09:48:51;;;;;;;;;;;23.80;38.20;;;;;;8300130;28;20415;-46
2022/05/12 09:52:55;;;;;;;;;;;23.80;38.10;;;;;;8300490;28;19926;-45
2022/05/12 09:57:14;;;;;;;;;;;23.90;38.10;;;;;;8299841;28;20401;-51
2022/05/12 10:01:17;;;;;;;;;;;23.80;38.10;;;;;;8299877;28;19914;-48
2022/05/12 10:09:49;;;;;;;;;;;23.90;38.10;;;;;;8298491;28;20390;-47
2022/05/12 10:13:53;;;;;;;;;;;23.90;38.00;;;;;;8299771;28;20371;-46
2022/05/12 10:17:56;;;;;;;;;;;23.90;38.10;;;;;;8299106;28;19913;-49
2022/05/12 10:22:29;;;;;;;;;;;24.00;38.10;;;;;;8299783;28;19921;-50
2022/05/12 10:26:42;;;;;;;;;;;24.00;38.00;;;;;;8287386;28;19917;-47
2022/05/12 10:30:45;;;;;;;;;;;24.00;38.00;;;;;;8299156;28;19932;-46
2022/05/12 10:34:55;;;;;;;;;;;24.00;38.00;;;;;;8299308;28;19992;-48
2022/05/12 10:39:22;;;;;;;;;;;24.10;38.00;;;;;;8298754;28;19913;-51
2022/05/12 10:43:22;;;;;;;;;;;24.10;38.00;;;;;;8290649;28;20379;-45
2022/05/12 10:47:38;;;;;;;;;;;24.10;38.10;;;;;;8298891;28;19914;-47
2022/05/12 10:51:39;;;;;;;;;;;24.10;38.00;;;;;;8298215;28;19926;-49
2022/05/12 10:55:49;;;;;;;;;;;24.10;38.00;;;;;;8299227;28;19972;-46
2022/05/12 10:59:53;;;;;;;;;;;24.10;38.00;;;;;;8298122;28;19953;-47
2022/05/12 11:04:12;;;;;;;;;;;24.20;38.00;;;;;;8296008;28;20310;-51
2022/05/12 11:08:28;;;;;;;;;;;24.20;38.00;;;;;;8298430;28;19925;-50
2022/05/12 11:12:30;;;;;;;;;;;24.20;37.90;;;;;;8297577;28;19926;-49
2022/05/12 11:16:36;;;;;;;;;;;24.30;38.00;;;;;;8298421;28;19963;-49
2022/05/12 11:20:42;;;;;;;;;;;24.30;37.90;;;;;;8297984;28;19928;-47
2022/05/12 11:24:48;;;;;;;;;;;24.30;37.90;;;;;;8297127;28;19984;-45
2022/05/12 11:33:22;;;;;;;;;;;24.30;37.90;;;;;;8298701;28;19932;-49
2022/05/12 11:37:26;;;;;;;;;;;24.40;37.90;;;;;;8297167;28;19914;-47
2022/05/12 11:41:32;;;;;;;;;;;24.40;37.90;;;;;;8297772;28;19917;-50
2022/05/12 11:45:42;;;;;;;;;;;24.40;37.90;;;;;;8296952;28;20367;-50
2022/05/12 11:49:43;;;;;;;;;;;24.40;37.80;;;;;;8297538;28;19932;-48
2022/05/12 11:53:53;;;;;;;;;;;24.40;37.80;;;;;;8297410;28;19913;-48
2022/05/12 11:57:58;;;;;;;;;;;24.50;37.90;;;;;;8297381;28;19917;-47
2022/05/12 12:01:59;;;;;;;;;;;24.50;37.90;;;;;;8297355;28;19921;-46
2022/05/12 12:06:01;;;;;;;;;;;24.50;37.80;;;;;;8297028;28;19941;-46
2022/05/12 12:10:06;;;;;;;;;;;24.50;37.90;;;;;;8297770;28;20345;-46
2022/05/12 12:14:07;;;;;;;;;;;24.50;37.80;;;;;;8297184;28;19914;-48
2022/05/12 12:18:25;;;;;;;;;;;24.50;37.80;;;;;;8296576;28;20016;-49
2022/05/12 12:22:26;;;;;;;;;;;24.50;37.70;;;;;;8297153;28;19929;-46
2022/05/12 12:26:32;;;;;;;;;;;24.60;37.80;;;;;;8297455;28;20391;-46
2022/05/12 12:30:51;;;;;;;;;;;24.60;37.80;;;;;;8296179;28;19926;-46
2022/05/12 12:34:53;;;;;;;;;;;24.60;37.80;;;;;;8296645;28;19925;-48
2022/05/12 12:38:53;;;;;;;;;;;24.60;37.80;;;;;;8296290;28;19985;-46
2022/05/12 12:42:54;;;;;;;;;;;24.60;37.80;;;;;;8296481;28;19948;-48
2022/05/12 12:46:54;;;;;;;;;;;24.60;37.70;;;;;;8298360;28;19967;-48
2022/05/12 12:50:55;;;;;;;;;;;24.60;37.80;;;;;;8301909;28;20449;-47
2022/05/12 12:59:19;;;;;;;;;;;24.70;37.70;;;;;;8302038;28;20028;-48
2022/05/12 13:03:21;;;;;;;;;;;24.70;37.70;;;;;;8301427;28;20348;-47
2022/05/12 13:07:27;;;;;;;;;;;24.70;38.10;;;;;;8302092;28;19921;-48
2022/05/12 13:11:28;;;;;;;;;;;24.80;37.80;;;;;;8301086;28;19926;-51
2022/05/12 13:15:32;;;;;;;;;;;24.80;37.80;;;;;;8301570;28;19963;-48
2022/05/12 13:19:35;;;;;;;;;;;24.80;37.80;;;;;;8301698;28;19921;-48
2022/05/12 13:23:38;;;;;;;;;;;24.80;37.70;;;;;;8301216;28;19972;-47
2022/05/12 13:27:41;;;;;;;;;;;24.80;37.70;;;;;;8301124;28;19922;-47
2022/05/12 13:31:42;;;;;;;;;;;24.80;37.70;;;;;;8301174;28;19952;-47
2022/05/12 13:35:53;;;;;;;;;;;24.80;37.70;;;;;;8301125;28;19918;-48
2022/05/12 13:39:54;;;;;;;;;;;24.80;37.70;;;;;;8300437;28;20355;-50
2022/05/12 13:44:18;;;;;;;;;;;24.80;37.70;;;;;;8300573;28;19946;-49
2022/05/12 13:48:20;;;;;;;;;;;24.80;37.70;;;;;;8299959;28;20298;-49
2022/05/12 13:52:37;;;;;;;;;;;24.80;37.70;;;;;;8300273;28;19987;-52
2022/05/12 13:56:39;;;;;;;;;;;24.80;37.70;;;;;;8300264;28;19925;-48
2022/05/12 14:00:42;;;;;;;;;;;24.90;37.70;;;;;;8299092;28;19917;-48
2022/05/12 14:04:43;;;;;;;;;;;24.90;37.70;;;;;;8299848;28;19928;-49
2022/05/12 14:08:43;;;;;;;;;;;24.90;37.70;;;;;;8299939;28;20367;-47
2022/05/12 14:21:25;;;;;;;;;;;24.90;37.70;;;;;;8296473;28;19940;-48
2022/05/12 14:25:26;;;;;;;;;;;24.90;37.70;;;;;;8299419;28;20000;-48
2022/05/12 14:29:27;;;;;;;;;;;24.90;37.70;;;;;;8299199;28;20378;-48
2022/05/12 14:33:29;;;;;;;;;;;25.00;37.70;;;;;;8298612;28;19924;-46
2022/05/12 14:37:31;;;;;;;;;;;25.00;37.70;;;;;;8299524;28;20256;-48
2022/05/12 14:41:31;;;;;;;;;;;25.00;38.00;;;;;;8298738;28;19943;-47
2022/05/12 14:45:32;;;;;;;;;;;25.00;37.70;;;;;;8298411;28;19917;-47
2022/05/12 14:49:33;;;;;;;;;;;25.00;37.70;;;;;;8298751;28;20363;-48
2022/05/12 14:53:36;;;;;;;;;;;25.00;37.70;;;;;;8298617;28;20998;-49
2022/05/12 14:57:37;;;;;;;;;;;25.00;37.70;;;;;;8298139;28;19914;-47
2022/05/12 15:01:37;;;;;;;;;;;25.00;37.70;;;;;;8298430;28;20001;-49
2022/05/12 15:05:38;;;;;;;;;;;25.00;37.70;;;;;;8298465;28;20013;-47
2022/05/12 15:09:39;;;;;;;;;;;25.00;37.60;;;;;;8296679;28;19925;-51
2022/05/12 15:13:40;;;;;;;;;;;25.00;37.70;;;;;;8297953;28;19953;-49
2022/05/12 15:17:43;;;;;;;;;;;25.00;37.70;;;;;;8298436;28;19913;-48
2022/05/12 15:21:43;;;;;;;;;;;25.00;38.20;;;;;;8297466;28;19957;-50
2022/05/12 15:25:45;;;;;;;;;;;25.00;37.80;;;;;;8298011;28;19980;-50
2022/05/12 15:29:47;;;;;;;;;;;25.00;37.70;;;;;;8297295;28;19967;-48
2022/05/12 15:33:48;;;;;;;;;;;25.00;37.70;;;;;;8297490;28;19924;-48
2022/05/12 15:37:49;;;;;;;;;;;25.00;37.80;;;;;;8297717;28;19921;-48
2022/05/12 15:41:50;;;;;;;;;;;25.00;37.80;;;;;;8297760;28;19918;-48
2022/05/12 15:45:51;;;;;;;;;;;25.10;37.80;;;;;;8297461;28;19997;-48
2022/05/12 15:49:52;;;;;;;;;;;25.00;37.70;;;;;;8297304;28;20299;-47
2022/05/12 15:53:52;;;;;;;;;;;25.00;37.80;;;;;;8296756;28;20294;-50
2022/05/12 15:57:53;;;;;;;;;;;25.00;37.80;;;;;;8297802;28;19922;-50
2022/05/12 16:01:54;;;;;;;;;;;25.00;37.80;;;;;;8297406;28;20275;-51
2022/05/12 16:05:55;;;;;;;;;;;25.00;37.90;;;;;;8296056;28;20004;-49
2022/05/12 16:09:55;;;;;;;;;;;25.00;37.80;;;;;;8297308;28;19929;-52
2022/05/12 16:13:56;;;;;;;;;;;25.00;37.90;;;;;;8297048;28;19914;-47
2022/05/12 16:17:58;;;;;;;;;;;25.00;37.80;;;;;;8296628;28;19921;-48
2022/05/12 16:21:58;;;;;;;;;;;25.00;37.80;;;;;;8299029;28;20413;-48
2022/05/12 16:26:09;;;;;;;;;;;25.00;37.80;;;;;;8303208;28;19917;-49
2022/05/12 16:30:11;;;;;;;;;;;25.00;37.90;;;;;;8302650;28;19980;-47
2022/05/12 16:34:11;;;;;;;;;;;25.00;38.00;;;;;;8302848;28;20314;-48
2022/05/12 16:38:12;;;;;;;;;;;25.00;38.00;;;;;;8303187;28;19918;-49
2022/05/12 16:42:13;;;;;;;;;;;25.00;38.00;;;;;;8302326;28;19917;-48
2022/05/12 16:46:16;;;;;;;;;;;25.00;38.10;;;;;;8302803;28;20431;-46
2022/05/12 16:50:17;;;;;;;;;;;24.90;38.10;;;;;;8302607;28;19977;-46
2022/05/12 16:54:17;;;;;;;;;;;24.90;38.10;;;;;;8301898;28;19925;-48
2022/05/12 16:58:18;;;;;;;;;;;24.90;38.20;;;;;;8302484;28;19913;-50
2022/05/12 17:02:19;;;;;;;;;;;24.90;38.20;;;;;;8302317;28;19922;-47
2022/05/12 17:06:19;;;;;;;;;;;24.90;38.20;;;;;;8301460;28;19925;-49
2022/05/12 17:10:20;;;;;;;;;;;24.90;38.20;;;;;;8301651;28;19929;-50
2022/05/12 17:14:20;;;;;;;;;;;24.90;38.20;;;;;;8301681;28;20363;-48
2022/05/12 17:18:21;;;;;;;;;;;24.80;38.10;;;;;;8301437;28;20362;-48
2022/05/12 17:22:22;;;;;;;;;;;24.90;38.20;;;;;;8301650;28;19976;-47
2022/05/12 17:26:22;;;;;;;;;;;24.90;38.30;;;;;;8301397;28;19925;-49
2022/05/12 17:30:23;;;;;;;;;;;24.80;38.20;;;;;;8300655;28;19925;-49
2022/05/12 17:34:23;;;;;;;;;;;24.80;38.30;;;;;;8300318;28;20367;-49
2022/05/12 17:38:24;;;;;;;;;;;24.80;38.80;;;;;;8301123;28;19913;-47
2022/05/12 17:42:24;;;;;;;;;;;24.80;38.30;;;;;;8300329;28;20293;-49
2022/05/12 17:46:25;;;;;;;;;;;24.80;38.20;;;;;;8300523;28;20378;-47
2022/05/12 17:50:25;;;;;;;;;;;24.80;38.30;;;;;;8300575;28;19932;-48
2022/05/12 17:54:26;;;;;;;;;;;24.80;38.30;;;;;;8299770;28;19968;-49
2022/05/12 17:58:27;;;;;;;;;;;24.80;38.30;;;;;;8300562;28;19918;-48
2022/05/12 18:02:27;;;;;;;;;;;24.80;38.30;;;;;;8300289;28;20287;-46
2022/05/12 18:06:28;;;;;;;;;;;24.80;38.30;;;;;;8299514;28;19918;-47
2022/05/12 18:10:28;;;;;;;;;;;24.80;38.30;;;;;;8299820;28;19926;-48
2022/05/12 18:14:29;;;;;;;;;;;24.80;38.30;;;;;;8299989;28;19914;-47
2022/05/12 18:18:29;;;;;;;;;;;24.80;38.30;;;;;;8299455;28;19914;-47
2022/05/12 18:22:30;;;;;;;;;;;24.80;38.30;;;;;;8299761;28;20016;-49
2022/05/12 18:26:30;;;;;;;;;;;24.80;38.30;;;;;;8299304;28;19924;-47
2022/05/12 18:30:31;;;;;;;;;;;24.80;38.40;;;;;;8298772;28;20330;-49
2022/05/12 18:34:31;;;;;;;;;;;24.80;38.40;;;;;;8299426;28;20004;-51
2022/05/12 18:38:33;;;;;;;;;;;24.80;38.40;;;;;;8299145;28;19917;-50
2022/05/12 18:42:35;;;;;;;;;;;24.80;38.40;;;;;;8298581;28;20390;-47
2022/05/12 18:46:37;;;;;;;;;;;24.80;38.40;;;;;;8298820;28;19972;-49
2022/05/12 18:50:38;;;;;;;;;;;24.80;38.40;;;;;;8299098;28;19980;-47
2022/05/12 18:54:42;;;;;;;;;;;24.70;38.40;;;;;;8298622;28;19914;-47
2022/05/12 18:58:42;;;;;;;;;;;24.70;38.40;;;;;;8298990;28;20442;-47
2022/05/12 19:02:42;;;;;;;;;;;24.80;38.50;;;;;;8298430;28;19996;-46
2022/05/12 19:06:43;;;;;;;;;;;24.70;38.40;;;;;;8297066;28;19917;-46
2022/05/12 19:10:43;;;;;;;;;;;24.80;38.50;;;;;;8298193;28;20349;-47
2022/05/12 19:14:44;;;;;;;;;;;24.70;38.50;;;;;;8298623;28;19914;-46
2022/05/12 19:18:44;;;;;;;;;;;24.70;38.40;;;;;;8297617;28;19924;-45
2022/05/12 19:22:45;;;;;;;;;;;24.70;38.40;;;;;;8297873;28;19924;-46
2022/05/12 19:26:45;;;;;;;;;;;24.70;38.50;;;;;;8297422;28;19917;-50
2022/05/12 19:30:46;;;;;;;;;;;24.70;38.50;;;;;;8297828;28;20435;-47
2022/05/12 19:34:46;;;;;;;;;;;24.70;38.40;;;;;;8298165;28;19914;-46
2022/05/12 19:38:47;;;;;;;;;;;24.70;38.50;;;;;;8297402;28;20371;-47
2022/05/12 19:42:47;;;;;;;;;;;24.70;38.50;;;;;;8297643;28;19964;-50
2022/05/12 19:46:48;;;;;;;;;;;24.70;38.40;;;;;;8297394;28;20009;-48
2022/05/12 19:50:49;;;;;;;;;;;24.60;38.40;;;;;;8296973;28;19925;-46
2022/05/12 19:54:50;;;;;;;;;;;24.70;38.40;;;;;;8297900;28;20000;-46
2022/05/12 19:58:51;;;;;;;;;;;24.70;38.50;;;;;;8302646;28;19964;-47
2022/05/12 20:02:51;;;;;;;;;;;24.70;38.40;;;;;;8303544;28;19945;-47
2022/05/12 20:06:52;;;;;;;;;;;24.70;38.50;;;;;;8304024;28;19928;-45
2022/05/12 20:10:53;;;;;;;;;;;24.60;38.40;;;;;;8303583;28;19930;-45
2022/05/12 20:14:54;;;;;;;;;;;24.70;38.50;;;;;;8303351;28;20448;-45
2022/05/12 20:18:54;;;;;;;;;;;24.60;38.40;;;;;;8303424;28;19918;-47
2022/05/12 20:22:56;;;;;;;;;;;24.60;38.40;;;;;;8303231;28;19972;-46
2022/05/12 20:26:57;;;;;;;;;;;24.70;38.50;;;;;;8302758;28;19924;-46
2022/05/12 20:30:58;;;;;;;;;;;24.60;38.50;;;;;;8302984;28;20368;-47
2022/05/12 20:34:59;;;;;;;;;;;24.60;38.50;;;;;;8303434;28;19917;-45
2022/05/12 20:39:00;;;;;;;;;;;24.60;38.60;;;;;;8302531;28;20004;-45
2022/05/12 20:43:01;;;;;;;;;;;24.60;38.60;;;;;;8302706;28;20268;-49
2022/05/12 20:47:01;;;;;;;;;;;24.60;38.60;;;;;;8302641;28;19941;-47
2022/05/12 20:51:02;;;;;;;;;;;24.60;38.60;;;;;;8301948;28;19929;-51
2022/05/12 20:55:03;;;;;;;;;;;24.60;38.60;;;;;;8302677;28;19921;-46
2022/05/12 20:59:04;;;;;;;;;;;24.60;38.70;;;;;;8302556;28;19918;-49
2022/05/12 21:03:05;;;;;;;;;;;24.60;38.70;;;;;;8301759;28;20345;-49
2022/05/12 21:07:06;;;;;;;;;;;24.60;39.20;;;;;;8301995;28;20004;-48
2022/05/12 21:11:06;;;;;;;;;;;24.60;38.80;;;;;;8301846;28;19975;-50
2022/05/12 21:15:07;;;;;;;;;;;24.60;38.70;;;;;;8301614;28;19918;-50
2022/05/12 21:19:07;;;;;;;;;;;24.50;38.70;;;;;;8301889;28;19917;-52
2022/05/12 21:23:08;;;;;;;;;;;24.50;38.80;;;;;;8301607;28;19925;-50
2022/05/12 21:27:08;;;;;;;;;;;24.50;38.80;;;;;;8301048;28;19921;-50
2022/05/12 21:31:09;;;;;;;;;;;24.50;38.70;;;;;;8301380;28;19957;-48
2022/05/12 21:35:11;;;;;;;;;;;24.50;38.70;;;;;;8301621;28;20382;-47
2022/05/12 21:39:13;;;;;;;;;;;24.50;38.80;;;;;;8300555;28;20009;-47
2022/05/12 21:43:14;;;;;;;;;;;24.50;38.80;;;;;;8300725;28;19918;-50
2022/05/12 21:47:14;;;;;;;;;;;24.50;38.80;;;;;;8300908;28;20295;-45
2022/05/12 21:51:16;;;;;;;;;;;24.50;38.80;;;;;;8300162;28;19972;-48
2022/05/12 21:55:17;;;;;;;;;;;24.50;38.80;;;;;;8300822;28;20409;-46
2022/05/12 22:03:36;;;;;;;;;;;24.50;38.80;;;;;;8277687;28;20062;-47
2022/05/12 22:07:37;;;;;;;;;;;24.50;38.80;;;;;;8299235;28;19914;-45
2022/05/12 22:15:56;;;;;;;;;;;24.50;38.90;;;;;;8300047;28;19996;-50
2022/05/12 22:19:56;;;;;;;;;;;24.50;38.90;;;;;;8299179;28;19917;-51
2022/05/12 22:23:57;;;;;;;;;;;24.40;38.80;;;;;;8299293;28;20010;-46
2022/05/12 22:27:57;;;;;;;;;;;24.40;38.90;;;;;;8299716;28;19980;-47
2022/05/12 22:31:58;;;;;;;;;;;24.40;38.90;;;;;;8299374;28;20331;-48
2022/05/12 22:35:58;;;;;;;;;;;24.40;38.90;;;;;;8299187;28;19929;-48
2022/05/12 22:39:59;;;;;;;;;;;24.40;38.90;;;;;;8299214;28;19918;-47
2022/05/12 22:44:00;;;;;;;;;;;24.40;39.00;;;;;;8299099;28;19917;-48
2022/05/12 22:48:01;;;;;;;;;;;24.40;39.00;;;;;;8298581;28;19914;-47
2022/05/12 22:52:02;;;;;;;;;;;24.40;39.10;;;;;;8299029;28;20004;-46
2022/05/12 22:56:03;;;;;;;;;;;24.40;39.10;;;;;;8299065;28;19948;-47
2022/05/12 23:00:04;;;;;;;;;;;24.40;39.10;;;;;;8298218;28;19924;-48
2022/05/12 23:04:05;;;;;;;;;;;24.40;39.10;;;;;;8298801;28;20326;-47
2022/05/12 23:08:05;;;;;;;;;;;24.40;39.10;;;;;;8298868;28;19920;-48
2022/05/12 23:12:06;;;;;;;;;;;24.40;39.10;;;;;;8297897;28;19925;-47
2022/05/12 23:16:07;;;;;;;;;;;24.40;39.10;;;;;;8298747;28;19999;-46
2022/05/12 23:24:32;;;;;;;;;;;24.40;39.20;;;;;;8298458;28;19924;-46
2022/05/12 23:28:33;;;;;;;;;;;24.30;39.20;;;;;;8297943;28;20000;-50
2022/05/12 23:32:34;;;;;;;;;;;24.30;39.20;;;;;;8297094;28;20341;-47
2022/05/12 23:36:34;;;;;;;;;;;24.30;39.20;;;;;;8297626;28;20062;-48
2022/05/12 23:40:35;;;;;;;;;;;24.30;39.20;;;;;;8297843;28;19918;-48
2022/05/12 23:44:35;;;;;;;;;;;24.30;39.20;;;;;;8297690;28;19917;-49
2022/05/12 23:48:36;;;;;;;;;;;24.30;39.20;;;;;;8297258;28;19921;-46
2022/05/12 23:52:36;;;;;;;;;;;24.30;39.30;;;;;;8297422;28;19929;-46
2022/05/12 23:56:36;;;;;;;;;;;24.30;39.30;;;;;;8297845;28;20356;-47
